sensor_id;sensor_type;location;lat;lon;timestamp;P1;durP1;ratioP1;P2;durP2;ratioP2
7495;SDS011;3789;47.064;15.482;2023-02-04T00:00:24;1.60;;;1.50;;
7495;SDS011;3789;47.064;15.482;2023-02-04T00:02:52;1.80;;;1.70;;
7495;SDS011;3789;47.064;15.482;2023-02-04T00:05:19;1.73;;;1.63;;
7495;SDS011;3789;47.064;15.482;2023-02-04T00:07:47;2.00;;;1.77;;
7495;SDS011;3789;47.064;15.482;2023-02-04T00:10:14;2.00;;;1.60;;
7495;SDS011;3789;47.064;15.482;2023-02-04T00:12:42;1.90;;;1.80;;
7495;SDS011;3789;47.064;15.482;2023-02-04T00:15:09;1.77;;;1.67;;
7495;SDS011;3789;47.064;15.482;2023-02-04T00:17:37;1.97;;;1.83;;
7495;SDS011;3789;47.064;15.482;2023-02-04T00:20:05;1.50;;;1.40;;
7495;SDS011;3789;47.064;15.482;2023-02-04T00:22:32;1.97;;;1.87;;
7495;SDS011;3789;47.064;15.482;2023-02-04T00:24:59;1.70;;;1.60;;
7495;SDS011;3789;47.064;15.482;2023-02-04T00:27:26;2.30;;;2.10;;
7495;SDS011;3789;47.064;15.482;2023-02-04T00:29:53;2.10;;;1.90;;
7495;SDS011;3789;47.064;15.482;2023-02-04T00:32:21;1.97;;;1.83;;
7495;SDS011;3789;47.064;15.482;2023-02-04T00:34:49;1.70;;;1.60;;
7495;SDS011;3789;47.064;15.482;2023-02-04T00:37:16;1.90;;;1.80;;
7495;SDS011;3789;47.064;15.482;2023-02-04T00:39:43;2.80;;;1.83;;
7495;SDS011;3789;47.064;15.482;2023-02-04T00:42:10;2.00;;;1.63;;
7495;SDS011;3789;47.064;15.482;2023-02-04T00:44:37;1.40;;;1.30;;
7495;SDS011;3789;47.064;15.482;2023-02-04T00:47:05;2.20;;;1.47;;
7495;SDS011;3789;47.064;15.482;2023-02-04T00:49:32;1.93;;;1.70;;
7495;SDS011;3789;47.064;15.482;2023-02-04T00:52:00;1.87;;;1.77;;
7495;SDS011;3789;47.064;15.482;2023-02-04T00:54:27;1.70;;;1.60;;
7495;SDS011;3789;47.064;15.482;2023-02-04T00:56:55;2.03;;;1.43;;
7495;SDS011;3789;47.064;15.482;2023-02-04T00:59:22;2.60;;;2.40;;
7495;SDS011;3789;47.064;15.482;2023-02-04T01:01:50;3.07;;;2.40;;
7495;SDS011;3789;47.064;15.482;2023-02-04T01:04:18;1.73;;;1.63;;
7495;SDS011;3789;47.064;15.482;2023-02-04T01:06:46;1.63;;;1.43;;
7495;SDS011;3789;47.064;15.482;2023-02-04T01:09:13;2.03;;;1.57;;
7495;SDS011;3789;47.064;15.482;2023-02-04T01:11:41;1.40;;;1.30;;
7495;SDS011;3789;47.064;15.482;2023-02-04T01:14:08;1.50;;;1.40;;
7495;SDS011;3789;47.064;15.482;2023-02-04T01:16:36;1.40;;;1.30;;
7495;SDS011;3789;47.064;15.482;2023-02-04T01:19:03;1.20;;;1.10;;
7495;SDS011;3789;47.064;15.482;2023-02-04T01:21:30;1.30;;;1.20;;
7495;SDS011;3789;47.064;15.482;2023-02-04T01:23:58;1.30;;;1.20;;
7495;SDS011;3789;47.064;15.482;2023-02-04T01:26:26;1.40;;;1.30;;
7495;SDS011;3789;47.064;15.482;2023-02-04T01:28:53;1.33;;;1.20;;
7495;SDS011;3789;47.064;15.482;2023-02-04T01:31:20;1.07;;;1.07;;
7495;SDS011;3789;47.064;15.482;2023-02-04T01:33:47;0.90;;;0.90;;
7495;SDS011;3789;47.064;15.482;2023-02-04T01:36:15;1.00;;;1.00;;
7495;SDS011;3789;47.064;15.482;2023-02-04T01:38:47;1.30;;;1.20;;
7495;SDS011;3789;47.064;15.482;2023-02-04T01:41:16;1.00;;;1.00;;
7495;SDS011;3789;47.064;15.482;2023-02-04T01:43:44;1.20;;;1.10;;
7495;SDS011;3789;47.064;15.482;2023-02-04T01:46:13;1.00;;;1.00;;
7495;SDS011;3789;47.064;15.482;2023-02-04T01:48:42;1.00;;;1.00;;
7495;SDS011;3789;47.064;15.482;2023-02-04T01:51:11;1.10;;;1.10;;
7495;SDS011;3789;47.064;15.482;2023-02-04T01:53:41;1.00;;;1.00;;
7495;SDS011;3789;47.064;15.482;2023-02-04T01:56:17;1.10;;;1.00;;
7495;SDS011;3789;47.064;15.482;2023-02-04T01:58:46;1.00;;;1.00;;
7495;SDS011;3789;47.064;15.482;2023-02-04T02:01:31;2.60;;;1.07;;
7495;SDS011;3789;47.064;15.482;2023-02-04T02:04:01;1.00;;;1.00;;
7495;SDS011;3789;47.064;15.482;2023-02-04T02:06:30;0.90;;;0.90;;
7495;SDS011;3789;47.064;15.482;2023-02-04T02:08:57;1.40;;;0.90;;
7495;SDS011;3789;47.064;15.482;2023-02-04T02:11:25;0.90;;;0.87;;
7495;SDS011;3789;47.064;15.482;2023-02-04T02:13:53;0.90;;;0.90;;
7495;SDS011;3789;47.064;15.482;2023-02-04T02:16:21;0.90;;;0.90;;
7495;SDS011;3789;47.064;15.482;2023-02-04T02:18:48;1.00;;;1.00;;
7495;SDS011;3789;47.064;15.482;2023-02-04T02:21:17;0.90;;;0.90;;
7495;SDS011;3789;47.064;15.482;2023-02-04T02:23:53;1.10;;;0.90;;
7495;SDS011;3789;47.064;15.482;2023-02-04T02:26:26;0.90;;;0.90;;
7495;SDS011;3789;47.064;15.482;2023-02-04T02:28:54;1.00;;;1.00;;
7495;SDS011;3789;47.064;15.482;2023-02-04T02:31:21;1.00;;;1.00;;
7495;SDS011;3789;47.064;15.482;2023-02-04T02:33:49;0.90;;;0.90;;
7495;SDS011;3789;47.064;15.482;2023-02-04T02:36:16;0.90;;;0.80;;
7495;SDS011;3789;47.064;15.482;2023-02-04T02:38:44;0.87;;;0.87;;
7495;SDS011;3789;47.064;15.482;2023-02-04T02:41:11;0.90;;;0.90;;
7495;SDS011;3789;47.064;15.482;2023-02-04T02:43:38;0.90;;;0.90;;
7495;SDS011;3789;47.064;15.482;2023-02-04T02:46:05;1.00;;;1.00;;
7495;SDS011;3789;47.064;15.482;2023-02-04T02:48:33;0.90;;;0.90;;
7495;SDS011;3789;47.064;15.482;2023-02-04T02:51:00;0.90;;;0.90;;
7495;SDS011;3789;47.064;15.482;2023-02-04T02:53:27;0.93;;;0.90;;
7495;SDS011;3789;47.064;15.482;2023-02-04T02:55:54;0.90;;;0.90;;
7495;SDS011;3789;47.064;15.482;2023-02-04T02:58:23;0.90;;;0.90;;
7495;SDS011;3789;47.064;15.482;2023-02-04T03:00:54;1.30;;;0.90;;
7495;SDS011;3789;47.064;15.482;2023-02-04T03:03:23;0.97;;;0.93;;
7495;SDS011;3789;47.064;15.482;2023-02-04T03:06:00;0.80;;;0.80;;
7495;SDS011;3789;47.064;15.482;2023-02-04T03:08:36;0.90;;;0.90;;
7495;SDS011;3789;47.064;15.482;2023-02-04T03:11:04;1.10;;;0.90;;
7495;SDS011;3789;47.064;15.482;2023-02-04T03:13:32;0.90;;;0.90;;
7495;SDS011;3789;47.064;15.482;2023-02-04T03:16:00;0.90;;;0.90;;
7495;SDS011;3789;47.064;15.482;2023-02-04T03:18:27;1.00;;;1.00;;
7495;SDS011;3789;47.064;15.482;2023-02-04T03:20:55;0.90;;;0.90;;
7495;SDS011;3789;47.064;15.482;2023-02-04T03:23:24;1.00;;;1.00;;
7495;SDS011;3789;47.064;15.482;2023-02-04T03:25:52;0.90;;;0.90;;
7495;SDS011;3789;47.064;15.482;2023-02-04T03:28:20;0.90;;;0.90;;
7495;SDS011;3789;47.064;15.482;2023-02-04T03:30:47;1.00;;;1.00;;
7495;SDS011;3789;47.064;15.482;2023-02-04T03:33:19;0.80;;;0.80;;
7495;SDS011;3789;47.064;15.482;2023-02-04T03:35:50;0.70;;;0.70;;
7495;SDS011;3789;47.064;15.482;2023-02-04T03:38:17;0.90;;;0.90;;
7495;SDS011;3789;47.064;15.482;2023-02-04T03:40:45;0.90;;;0.90;;
7495;SDS011;3789;47.064;15.482;2023-02-04T03:43:12;0.90;;;0.90;;
7495;SDS011;3789;47.064;15.482;2023-02-04T03:45:39;0.80;;;0.80;;
7495;SDS011;3789;47.064;15.482;2023-02-04T03:48:11;0.90;;;0.90;;
7495;SDS011;3789;47.064;15.482;2023-02-04T03:50:38;0.90;;;0.90;;
7495;SDS011;3789;47.064;15.482;2023-02-04T03:53:05;0.90;;;0.90;;
7495;SDS011;3789;47.064;15.482;2023-02-04T03:55:33;1.00;;;1.00;;
7495;SDS011;3789;47.064;15.482;2023-02-04T03:58:02;0.90;;;0.90;;
7495;SDS011;3789;47.064;15.482;2023-02-04T04:00:29;0.97;;;0.80;;
7495;SDS011;3789;47.064;15.482;2023-02-04T04:02:58;0.93;;;0.93;;
7495;SDS011;3789;47.064;15.482;2023-02-04T04:05:26;1.10;;;1.10;;
7495;SDS011;3789;47.064;15.482;2023-02-04T04:07:54;0.90;;;0.90;;
7495;SDS011;3789;47.064;15.482;2023-02-04T04:10:21;0.90;;;0.90;;
7495;SDS011;3789;47.064;15.482;2023-02-04T04:12:48;0.90;;;0.90;;
7495;SDS011;3789;47.064;15.482;2023-02-04T04:15:15;0.93;;;0.93;;
7495;SDS011;3789;47.064;15.482;2023-02-04T04:17:42;0.90;;;0.90;;
7495;SDS011;3789;47.064;15.482;2023-02-04T04:20:10;1.00;;;0.90;;
7495;SDS011;3789;47.064;15.482;2023-02-04T04:22:38;0.80;;;0.80;;
7495;SDS011;3789;47.064;15.482;2023-02-04T04:25:05;1.03;;;0.80;;
7495;SDS011;3789;47.064;15.482;2023-02-04T04:27:33;1.37;;;0.90;;
7495;SDS011;3789;47.064;15.482;2023-02-04T04:30:00;0.80;;;0.80;;
7495;SDS011;3789;47.064;15.482;2023-02-04T04:32:28;0.90;;;0.90;;
7495;SDS011;3789;47.064;15.482;2023-02-04T04:34:55;1.00;;;1.00;;
7495;SDS011;3789;47.064;15.482;2023-02-04T04:37:22;0.90;;;0.90;;
7495;SDS011;3789;47.064;15.482;2023-02-04T04:39:49;0.90;;;0.90;;
7495;SDS011;3789;47.064;15.482;2023-02-04T04:42:16;0.90;;;0.90;;
7495;SDS011;3789;47.064;15.482;2023-02-04T04:44:44;0.90;;;0.90;;
7495;SDS011;3789;47.064;15.482;2023-02-04T04:47:11;0.90;;;0.90;;
7495;SDS011;3789;47.064;15.482;2023-02-04T04:49:38;0.90;;;0.90;;
7495;SDS011;3789;47.064;15.482;2023-02-04T04:52:05;0.80;;;0.80;;
7495;SDS011;3789;47.064;15.482;2023-02-04T04:54:32;1.00;;;1.00;;
7495;SDS011;3789;47.064;15.482;2023-02-04T04:57:00;1.37;;;0.90;;
7495;SDS011;3789;47.064;15.482;2023-02-04T04:59:27;0.90;;;0.90;;
7495;SDS011;3789;47.064;15.482;2023-02-04T05:01:54;0.80;;;0.80;;
7495;SDS011;3789;47.064;15.482;2023-02-04T05:04:21;0.80;;;0.80;;
7495;SDS011;3789;47.064;15.482;2023-02-04T05:06:48;1.00;;;1.00;;
7495;SDS011;3789;47.064;15.482;2023-02-04T05:09:15;0.80;;;0.80;;
7495;SDS011;3789;47.064;15.482;2023-02-04T05:11:42;0.97;;;0.97;;
7495;SDS011;3789;47.064;15.482;2023-02-04T05:14:10;0.83;;;0.83;;
7495;SDS011;3789;47.064;15.482;2023-02-04T05:16:37;0.90;;;0.90;;
7495;SDS011;3789;47.064;15.482;2023-02-04T05:19:04;0.97;;;0.90;;
7495;SDS011;3789;47.064;15.482;2023-02-04T05:21:32;0.80;;;0.80;;
7495;SDS011;3789;47.064;15.482;2023-02-04T05:23:59;1.03;;;0.90;;
7495;SDS011;3789;47.064;15.482;2023-02-04T05:26:26;1.43;;;1.00;;
7495;SDS011;3789;47.064;15.482;2023-02-04T05:28:56;0.80;;;0.80;;
7495;SDS011;3789;47.064;15.482;2023-02-04T05:31:26;0.80;;;0.80;;
7495;SDS011;3789;47.064;15.482;2023-02-04T05:33:53;0.83;;;0.83;;
7495;SDS011;3789;47.064;15.482;2023-02-04T05:36:21;0.83;;;0.83;;
7495;SDS011;3789;47.064;15.482;2023-02-04T05:38:48;0.90;;;0.90;;
7495;SDS011;3789;47.064;15.482;2023-02-04T05:41:15;0.90;;;0.90;;
7495;SDS011;3789;47.064;15.482;2023-02-04T05:43:42;1.00;;;1.00;;
7495;SDS011;3789;47.064;15.482;2023-02-04T05:46:09;1.10;;;1.00;;
7495;SDS011;3789;47.064;15.482;2023-02-04T05:48:37;1.10;;;1.10;;
7495;SDS011;3789;47.064;15.482;2023-02-04T05:51:06;1.20;;;1.20;;
7495;SDS011;3789;47.064;15.482;2023-02-04T05:53:33;1.30;;;1.20;;
7495;SDS011;3789;47.064;15.482;2023-02-04T05:56:00;1.10;;;1.10;;
7495;SDS011;3789;47.064;15.482;2023-02-04T05:58:28;1.27;;;1.20;;
7495;SDS011;3789;47.064;15.482;2023-02-04T06:01:05;1.30;;;1.20;;
7495;SDS011;3789;47.064;15.482;2023-02-04T06:03:32;1.20;;;1.20;;
7495;SDS011;3789;47.064;15.482;2023-02-04T06:06:00;1.30;;;1.30;;
7495;SDS011;3789;47.064;15.482;2023-02-04T06:08:27;1.50;;;1.40;;
7495;SDS011;3789;47.064;15.482;2023-02-04T06:10:54;1.67;;;1.57;;
7495;SDS011;3789;47.064;15.482;2023-02-04T06:13:21;2.03;;;1.60;;
7495;SDS011;3789;47.064;15.482;2023-02-04T06:15:48;2.00;;;1.30;;
7495;SDS011;3789;47.064;15.482;2023-02-04T06:18:16;1.33;;;1.23;;
7495;SDS011;3789;47.064;15.482;2023-02-04T06:20:43;1.20;;;1.20;;
7495;SDS011;3789;47.064;15.482;2023-02-04T06:23:10;1.40;;;1.30;;
7495;SDS011;3789;47.064;15.482;2023-02-04T06:25:37;1.40;;;1.30;;
7495;SDS011;3789;47.064;15.482;2023-02-04T06:28:04;1.20;;;1.20;;
7495;SDS011;3789;47.064;15.482;2023-02-04T06:30:31;1.43;;;1.33;;
7495;SDS011;3789;47.064;15.482;2023-02-04T06:32:59;1.50;;;1.40;;
7495;SDS011;3789;47.064;15.482;2023-02-04T06:35:27;1.40;;;1.30;;
7495;SDS011;3789;47.064;15.482;2023-02-04T06:37:54;1.53;;;1.43;;
7495;SDS011;3789;47.064;15.482;2023-02-04T06:40:22;1.20;;;1.20;;
7495;SDS011;3789;47.064;15.482;2023-02-04T06:42:49;1.83;;;1.37;;
7495;SDS011;3789;47.064;15.482;2023-02-04T06:45:16;1.20;;;1.20;;
7495;SDS011;3789;47.064;15.482;2023-02-04T06:47:44;1.70;;;1.60;;
7495;SDS011;3789;47.064;15.482;2023-02-04T06:50:11;1.73;;;1.63;;
7495;SDS011;3789;47.064;15.482;2023-02-04T06:52:47;1.50;;;1.33;;
7495;SDS011;3789;47.064;15.482;2023-02-04T06:55:15;1.70;;;1.43;;
7495;SDS011;3789;47.064;15.482;2023-02-04T06:57:43;2.40;;;2.00;;
7495;SDS011;3789;47.064;15.482;2023-02-04T07:00:11;2.00;;;1.80;;
7495;SDS011;3789;47.064;15.482;2023-02-04T07:02:38;1.57;;;1.40;;
7495;SDS011;3789;47.064;15.482;2023-02-04T07:05:06;1.20;;;1.20;;
7495;SDS011;3789;47.064;15.482;2023-02-04T07:07:33;1.40;;;1.30;;
7495;SDS011;3789;47.064;15.482;2023-02-04T07:10:01;1.27;;;1.17;;
7495;SDS011;3789;47.064;15.482;2023-02-04T07:12:28;1.10;;;1.00;;
7495;SDS011;3789;47.064;15.482;2023-02-04T07:14:55;1.10;;;1.10;;
7495;SDS011;3789;47.064;15.482;2023-02-04T07:17:23;1.00;;;1.00;;
7495;SDS011;3789;47.064;15.482;2023-02-04T07:19:51;1.23;;;1.23;;
7495;SDS011;3789;47.064;15.482;2023-02-04T07:22:18;1.00;;;1.00;;
7495;SDS011;3789;47.064;15.482;2023-02-04T07:24:46;1.10;;;1.10;;
7495;SDS011;3789;47.064;15.482;2023-02-04T07:27:13;1.23;;;1.10;;
7495;SDS011;3789;47.064;15.482;2023-02-04T07:29:40;1.10;;;1.10;;
7495;SDS011;3789;47.064;15.482;2023-02-04T07:32:07;0.90;;;0.90;;
7495;SDS011;3789;47.064;15.482;2023-02-04T07:34:35;1.43;;;1.33;;
7495;SDS011;3789;47.064;15.482;2023-02-04T07:37:02;2.00;;;1.80;;
7495;SDS011;3789;47.064;15.482;2023-02-04T07:39:30;1.60;;;1.50;;
7495;SDS011;3789;47.064;15.482;2023-02-04T07:41:57;1.10;;;1.10;;
7495;SDS011;3789;47.064;15.482;2023-02-04T07:44:24;1.20;;;1.10;;
7495;SDS011;3789;47.064;15.482;2023-02-04T07:46:52;1.10;;;1.03;;
7495;SDS011;3789;47.064;15.482;2023-02-04T07:49:19;1.30;;;1.20;;
7495;SDS011;3789;47.064;15.482;2023-02-04T07:51:46;1.00;;;1.00;;
7495;SDS011;3789;47.064;15.482;2023-02-04T07:54:13;1.10;;;1.00;;
7495;SDS011;3789;47.064;15.482;2023-02-04T07:56:41;1.30;;;1.20;;
7495;SDS011;3789;47.064;15.482;2023-02-04T07:59:08;1.30;;;1.20;;
7495;SDS011;3789;47.064;15.482;2023-02-04T08:01:35;1.83;;;1.10;;
7495;SDS011;3789;47.064;15.482;2023-02-04T08:04:02;1.30;;;1.20;;
7495;SDS011;3789;47.064;15.482;2023-02-04T08:06:29;1.03;;;1.03;;
7495;SDS011;3789;47.064;15.482;2023-02-04T08:08:56;1.20;;;1.10;;
7495;SDS011;3789;47.064;15.482;2023-02-04T08:11:23;0.80;;;0.80;;
7495;SDS011;3789;47.064;15.482;2023-02-04T08:13:52;1.30;;;1.20;;
7495;SDS011;3789;47.064;15.482;2023-02-04T08:16:19;1.27;;;1.10;;
7495;SDS011;3789;47.064;15.482;2023-02-04T08:18:46;1.13;;;1.10;;
7495;SDS011;3789;47.064;15.482;2023-02-04T08:21:13;1.00;;;1.00;;
7495;SDS011;3789;47.064;15.482;2023-02-04T08:23:40;0.97;;;0.97;;
7495;SDS011;3789;47.064;15.482;2023-02-04T08:26:08;1.20;;;1.10;;
7495;SDS011;3789;47.064;15.482;2023-02-04T08:28:36;1.00;;;1.00;;
7495;SDS011;3789;47.064;15.482;2023-02-04T08:31:05;1.40;;;1.30;;
7495;SDS011;3789;47.064;15.482;2023-02-04T08:33:32;1.50;;;1.40;;
7495;SDS011;3789;47.064;15.482;2023-02-04T08:36:00;1.40;;;1.30;;
7495;SDS011;3789;47.064;15.482;2023-02-04T08:38:27;1.40;;;1.17;;
7495;SDS011;3789;47.064;15.482;2023-02-04T08:40:54;1.07;;;1.03;;
7495;SDS011;3789;47.064;15.482;2023-02-04T08:43:21;1.20;;;1.10;;
7495;SDS011;3789;47.064;15.482;2023-02-04T08:45:49;1.10;;;1.00;;
7495;SDS011;3789;47.064;15.482;2023-02-04T08:48:16;1.07;;;1.00;;
7495;SDS011;3789;47.064;15.482;2023-02-04T08:50:43;0.80;;;0.80;;
7495;SDS011;3789;47.064;15.482;2023-02-04T08:53:11;1.20;;;1.10;;
7495;SDS011;3789;47.064;15.482;2023-02-04T08:55:38;1.00;;;0.90;;
7495;SDS011;3789;47.064;15.482;2023-02-04T08:58:05;0.97;;;0.97;;
7495;SDS011;3789;47.064;15.482;2023-02-04T09:00:33;0.87;;;0.87;;
7495;SDS011;3789;47.064;15.482;2023-02-04T09:03:01;1.83;;;1.00;;
7495;SDS011;3789;47.064;15.482;2023-02-04T09:05:28;1.00;;;1.00;;
7495;SDS011;3789;47.064;15.482;2023-02-04T09:08:12;0.97;;;0.97;;
7495;SDS011;3789;47.064;15.482;2023-02-04T09:10:41;1.70;;;1.00;;
7495;SDS011;3789;47.064;15.482;2023-02-04T09:13:08;0.87;;;0.87;;
7495;SDS011;3789;47.064;15.482;2023-02-04T09:15:37;1.00;;;0.90;;
7495;SDS011;3789;47.064;15.482;2023-02-04T09:18:04;1.00;;;0.90;;
7495;SDS011;3789;47.064;15.482;2023-02-04T09:20:40;1.07;;;1.00;;
7495;SDS011;3789;47.064;15.482;2023-02-04T09:23:08;1.10;;;1.00;;
7495;SDS011;3789;47.064;15.482;2023-02-04T09:25:37;1.20;;;0.93;;
7495;SDS011;3789;47.064;15.482;2023-02-04T09:28:05;0.90;;;0.90;;
7495;SDS011;3789;47.064;15.482;2023-02-04T09:30:37;1.10;;;1.00;;
7495;SDS011;3789;47.064;15.482;2023-02-04T09:33:05;2.27;;;1.07;;
7495;SDS011;3789;47.064;15.482;2023-02-04T09:35:33;1.00;;;1.00;;
7495;SDS011;3789;47.064;15.482;2023-02-04T09:38:00;0.93;;;0.93;;
7495;SDS011;3789;47.064;15.482;2023-02-04T09:40:29;1.03;;;1.00;;
7495;SDS011;3789;47.064;15.482;2023-02-04T09:43:00;1.07;;;1.07;;
7495;SDS011;3789;47.064;15.482;2023-02-04T09:45:31;0.90;;;0.90;;
7495;SDS011;3789;47.064;15.482;2023-02-04T09:48:01;1.57;;;1.00;;
7495;SDS011;3789;47.064;15.482;2023-02-04T09:50:30;0.97;;;0.97;;
7495;SDS011;3789;47.064;15.482;2023-02-04T09:53:00;2.10;;;1.00;;
7495;SDS011;3789;47.064;15.482;2023-02-04T09:55:37;1.13;;;1.03;;
7495;SDS011;3789;47.064;15.482;2023-02-04T09:58:15;1.10;;;1.00;;
7495;SDS011;3789;47.064;15.482;2023-02-04T10:00:45;1.20;;;1.10;;
7495;SDS011;3789;47.064;15.482;2023-02-04T10:03:18;1.10;;;1.00;;
7495;SDS011;3789;47.064;15.482;2023-02-04T10:05:47;1.03;;;1.00;;
7495;SDS011;3789;47.064;15.482;2023-02-04T10:08:22;0.97;;;0.97;;
7495;SDS011;3789;47.064;15.482;2023-02-04T10:10:54;1.00;;;1.00;;
7495;SDS011;3789;47.064;15.482;2023-02-04T10:13:26;1.20;;;1.10;;
7495;SDS011;3789;47.064;15.482;2023-02-04T10:15:58;1.37;;;1.20;;
7495;SDS011;3789;47.064;15.482;2023-02-04T10:18:30;1.00;;;1.00;;
7495;SDS011;3789;47.064;15.482;2023-02-04T10:21:02;1.30;;;1.20;;
7495;SDS011;3789;47.064;15.482;2023-02-04T10:23:39;1.00;;;1.00;;
7495;SDS011;3789;47.064;15.482;2023-02-04T10:26:10;1.10;;;1.10;;
7495;SDS011;3789;47.064;15.482;2023-02-04T10:28:38;1.00;;;1.00;;
7495;SDS011;3789;47.064;15.482;2023-02-04T10:31:06;1.30;;;1.10;;
7495;SDS011;3789;47.064;15.482;2023-02-04T10:34:04;1.10;;;1.10;;
7495;SDS011;3789;47.064;15.482;2023-02-04T10:36:45;1.20;;;1.10;;
7495;SDS011;3789;47.064;15.482;2023-02-04T10:39:15;1.37;;;1.20;;
7495;SDS011;3789;47.064;15.482;2023-02-04T10:44:23;1.30;;;1.20;;
7495;SDS011;3789;47.064;15.482;2023-02-04T10:47:04;1.10;;;1.10;;
7495;SDS011;3789;47.064;15.482;2023-02-04T10:49:34;1.40;;;1.30;;
7495;SDS011;3789;47.064;15.482;2023-02-04T10:52:05;1.40;;;1.30;;
7495;SDS011;3789;47.064;15.482;2023-02-04T10:54:41;1.30;;;1.20;;
7495;SDS011;3789;47.064;15.482;2023-02-04T10:59:50;1.50;;;1.40;;
7495;SDS011;3789;47.064;15.482;2023-02-04T11:05:10;1.47;;;1.23;;
7495;SDS011;3789;47.064;15.482;2023-02-04T11:07:43;1.40;;;1.30;;
7495;SDS011;3789;47.064;15.482;2023-02-04T11:10:14;1.10;;;1.10;;
7495;SDS011;3789;47.064;15.482;2023-02-04T11:15:39;2.10;;;1.10;;
7495;SDS011;3789;47.064;15.482;2023-02-04T11:18:08;1.20;;;1.10;;
7495;SDS011;3789;47.064;15.482;2023-02-04T11:20:39;2.07;;;1.30;;
7495;SDS011;3789;47.064;15.482;2023-02-04T11:26:03;1.30;;;1.20;;
7495;SDS011;3789;47.064;15.482;2023-02-04T11:31:42;1.30;;;1.20;;
7495;SDS011;3789;47.064;15.482;2023-02-04T11:34:08;1.40;;;1.30;;
7495;SDS011;3789;47.064;15.482;2023-02-04T11:39:28;1.40;;;1.30;;
7495;SDS011;3789;47.064;15.482;2023-02-04T11:41:59;1.30;;;1.20;;
7495;SDS011;3789;47.064;15.482;2023-02-04T11:44:27;1.30;;;1.20;;
7495;SDS011;3789;47.064;15.482;2023-02-04T11:46:55;1.10;;;1.10;;
7495;SDS011;3789;47.064;15.482;2023-02-04T11:49:24;2.83;;;1.40;;
7495;SDS011;3789;47.064;15.482;2023-02-04T11:52:05;1.27;;;1.17;;
7495;SDS011;3789;47.064;15.482;2023-02-04T11:54:38;1.40;;;1.30;;
7495;SDS011;3789;47.064;15.482;2023-02-04T11:57:05;2.00;;;1.30;;
7495;SDS011;3789;47.064;15.482;2023-02-04T11:59:32;1.20;;;1.10;;
7495;SDS011;3789;47.064;15.482;2023-02-04T12:02:05;1.20;;;1.10;;
7495;SDS011;3789;47.064;15.482;2023-02-04T12:04:57;1.00;;;1.00;;
7495;SDS011;3789;47.064;15.482;2023-02-04T12:07:38;1.63;;;1.40;;
7495;SDS011;3789;47.064;15.482;2023-02-04T12:12:44;1.33;;;1.23;;
7495;SDS011;3789;47.064;15.482;2023-02-04T12:15:19;2.17;;;1.20;;
7495;SDS011;3789;47.064;15.482;2023-02-04T12:20:29;1.47;;;1.30;;
7495;SDS011;3789;47.064;15.482;2023-02-04T12:22:58;1.30;;;1.20;;
7495;SDS011;3789;47.064;15.482;2023-02-04T12:25:27;1.20;;;1.10;;
7495;SDS011;3789;47.064;15.482;2023-02-04T12:27:56;1.20;;;1.10;;
7495;SDS011;3789;47.064;15.482;2023-02-04T12:30:25;1.43;;;1.33;;
7495;SDS011;3789;47.064;15.482;2023-02-04T12:32:54;2.47;;;1.33;;
7495;SDS011;3789;47.064;15.482;2023-02-04T12:35:22;1.30;;;1.20;;
7495;SDS011;3789;47.064;15.482;2023-02-04T12:37:51;1.40;;;1.30;;
7495;SDS011;3789;47.064;15.482;2023-02-04T12:40:20;1.40;;;1.10;;
7495;SDS011;3789;47.064;15.482;2023-02-04T12:42:48;1.30;;;1.20;;
7495;SDS011;3789;47.064;15.482;2023-02-04T12:45:16;1.30;;;1.20;;
7495;SDS011;3789;47.064;15.482;2023-02-04T12:47:43;1.30;;;1.20;;
7495;SDS011;3789;47.064;15.482;2023-02-04T12:50:12;1.30;;;1.20;;
7495;SDS011;3789;47.064;15.482;2023-02-04T12:52:41;1.33;;;1.10;;
7495;SDS011;3789;47.064;15.482;2023-02-04T12:55:08;1.40;;;1.30;;
7495;SDS011;3789;47.064;15.482;2023-02-04T12:57:36;1.27;;;1.20;;
7495;SDS011;3789;47.064;15.482;2023-02-04T13:00:03;1.30;;;1.20;;
7495;SDS011;3789;47.064;15.482;2023-02-04T13:02:31;1.47;;;1.37;;
7495;SDS011;3789;47.064;15.482;2023-02-04T13:04:58;1.27;;;1.17;;
7495;SDS011;3789;47.064;15.482;2023-02-04T13:07:25;1.40;;;1.30;;
7495;SDS011;3789;47.064;15.482;2023-02-04T13:09:53;1.50;;;1.40;;
7495;SDS011;3789;47.064;15.482;2023-02-04T13:12:20;1.40;;;1.30;;
7495;SDS011;3789;47.064;15.482;2023-02-04T13:14:47;1.30;;;1.20;;
7495;SDS011;3789;47.064;15.482;2023-02-04T13:17:14;2.87;;;1.97;;
7495;SDS011;3789;47.064;15.482;2023-02-04T13:19:42;2.50;;;1.80;;
7495;SDS011;3789;47.064;15.482;2023-02-04T13:22:09;3.03;;;1.77;;
7495;SDS011;3789;47.064;15.482;2023-02-04T13:24:36;1.30;;;1.20;;
7495;SDS011;3789;47.064;15.482;2023-02-04T13:27:04;1.30;;;1.20;;
7495;SDS011;3789;47.064;15.482;2023-02-04T13:29:31;1.30;;;1.20;;
7495;SDS011;3789;47.064;15.482;2023-02-04T13:31:58;2.67;;;1.30;;
7495;SDS011;3789;47.064;15.482;2023-02-04T13:34:25;1.33;;;1.23;;
7495;SDS011;3789;47.064;15.482;2023-02-04T13:36:53;1.10;;;1.10;;
7495;SDS011;3789;47.064;15.482;2023-02-04T13:39:20;1.37;;;1.27;;
7495;SDS011;3789;47.064;15.482;2023-02-04T13:41:47;1.33;;;1.23;;
7495;SDS011;3789;47.064;15.482;2023-02-04T13:44:15;1.50;;;1.40;;
7495;SDS011;3789;47.064;15.482;2023-02-04T13:46:47;1.20;;;1.10;;
7495;SDS011;3789;47.064;15.482;2023-02-04T13:49:15;1.50;;;1.40;;
7495;SDS011;3789;47.064;15.482;2023-02-04T13:51:42;1.40;;;1.30;;
7495;SDS011;3789;47.064;15.482;2023-02-04T13:54:10;1.40;;;1.30;;
7495;SDS011;3789;47.064;15.482;2023-02-04T13:56:38;1.40;;;1.30;;
7495;SDS011;3789;47.064;15.482;2023-02-04T13:59:06;1.40;;;1.30;;
7495;SDS011;3789;47.064;15.482;2023-02-04T14:01:33;1.20;;;1.13;;
7495;SDS011;3789;47.064;15.482;2023-02-04T14:04:00;1.40;;;1.30;;
7495;SDS011;3789;47.064;15.482;2023-02-04T14:06:28;1.50;;;1.40;;
7495;SDS011;3789;47.064;15.482;2023-02-04T14:09:00;1.63;;;1.37;;
7495;SDS011;3789;47.064;15.482;2023-02-04T14:11:28;1.97;;;1.60;;
7495;SDS011;3789;47.064;15.482;2023-02-04T14:13:55;1.50;;;1.40;;
7495;SDS011;3789;47.064;15.482;2023-02-04T14:16:23;1.50;;;1.40;;
7495;SDS011;3789;47.064;15.482;2023-02-04T14:18:50;1.30;;;1.20;;
7495;SDS011;3789;47.064;15.482;2023-02-04T14:21:17;1.57;;;1.47;;
7495;SDS011;3789;47.064;15.482;2023-02-04T14:23:44;1.60;;;1.50;;
7495;SDS011;3789;47.064;15.482;2023-02-04T14:26:12;1.53;;;1.40;;
7495;SDS011;3789;47.064;15.482;2023-02-04T14:28:39;1.27;;;1.20;;
7495;SDS011;3789;47.064;15.482;2023-02-04T14:31:06;1.50;;;1.40;;
7495;SDS011;3789;47.064;15.482;2023-02-04T14:33:33;1.40;;;1.30;;
7495;SDS011;3789;47.064;15.482;2023-02-04T14:36:00;2.27;;;1.53;;
7495;SDS011;3789;47.064;15.482;2023-02-04T14:38:28;1.50;;;1.40;;
7495;SDS011;3789;47.064;15.482;2023-02-04T14:40:56;1.60;;;1.50;;
7495;SDS011;3789;47.064;15.482;2023-02-04T14:43:24;1.60;;;1.50;;
7495;SDS011;3789;47.064;15.482;2023-02-04T14:45:51;1.40;;;1.30;;
7495;SDS011;3789;47.064;15.482;2023-02-04T14:48:19;1.70;;;1.60;;
7495;SDS011;3789;47.064;15.482;2023-02-04T14:50:46;1.63;;;1.50;;
7495;SDS011;3789;47.064;15.482;2023-02-04T14:53:13;1.33;;;1.23;;
7495;SDS011;3789;47.064;15.482;2023-02-04T14:55:42;1.40;;;1.30;;
7495;SDS011;3789;47.064;15.482;2023-02-04T14:58:09;1.53;;;1.43;;
7495;SDS011;3789;47.064;15.482;2023-02-04T15:00:36;1.53;;;1.40;;
7495;SDS011;3789;47.064;15.482;2023-02-04T15:03:05;1.70;;;1.50;;
7495;SDS011;3789;47.064;15.482;2023-02-04T15:05:32;1.40;;;1.30;;
7495;SDS011;3789;47.064;15.482;2023-02-04T15:08:00;1.50;;;1.40;;
7495;SDS011;3789;47.064;15.482;2023-02-04T15:10:27;1.50;;;1.40;;
7495;SDS011;3789;47.064;15.482;2023-02-04T15:12:55;1.93;;;1.40;;
7495;SDS011;3789;47.064;15.482;2023-02-04T15:15:23;1.70;;;1.60;;
7495;SDS011;3789;47.064;15.482;2023-02-04T15:17:50;1.97;;;1.87;;
7495;SDS011;3789;47.064;15.482;2023-02-04T15:20:18;1.60;;;1.50;;
7495;SDS011;3789;47.064;15.482;2023-02-04T15:22:45;1.70;;;1.60;;
7495;SDS011;3789;47.064;15.482;2023-02-04T15:25:17;1.70;;;1.60;;
7495;SDS011;3789;47.064;15.482;2023-02-04T15:27:44;1.80;;;1.60;;
7495;SDS011;3789;47.064;15.482;2023-02-04T15:30:12;1.60;;;1.50;;
7495;SDS011;3789;47.064;15.482;2023-02-04T15:32:39;1.77;;;1.67;;